Time;durP1;ratioP1;P1;durP2;ratioP2;P2;SDS_P1;SDS_P2;PMS_P1;PMS_P2;Temp;Humidity;BMP_temperature;BMP_pressure;BME280_temperature;BME280_humidity;BME280_pressure;Samples;Min_cycle;Max_cycle;Signal;HPM_P1;HPM_P2
2022/08/19 04:01:58;;;;;;;14.73;10.40;;;;;;;26.43;51.47;99960.91;5619251;31;73871;-57
2022/08/19 04:05:01;;;;;;;14.57;10.93;;;;;;;26.43;51.47;99960.91;5603521;31;33453;-57
2022/08/19 04:08:05;;;;;;;12.27;9.55;;;;;;;25.93;52.11;99955.56;5603934;31;34201;-56
2022/08/19 04:11:17;;;;;;;13.15;9.82;;;;;;;25.93;56.19;99966.53;5603634;31;33605;-56
2022/08/19 04:14:23;;;;;;;14.00;10.18;;;;;;;26.01;52.04;99976.31;5603635;31;34295;-57
2022/08/19 04:17:26;;;;;;;12.45;10.18;;;;;;;26.09;51.84;99975.12;5603600;31;33517;-57
2022/08/19 04:20:28;;;;;;;11.77;10.32;;;;;;;25.99;51.98;99975.91;5603444;31;34282;-56
2022/08/19 04:23:31;;;;;;;12.82;10.05;;;;;;;26.13;51.88;99989.66;5603353;31;33672;-57
2022/08/19 04:26:36;;;;;;;17.25;10.68;;;;;;;26.21;50.98;99985.69;5603172;31;33577;-56
2022/08/19 04:29:40;;;;;;;12.93;9.60;;;;;;;26.11;51.40;99970.03;5603499;31;33658;-56
2022/08/19 04:32:43;;;;;;;14.93;9.75;;;;;;;26.17;51.95;99973.16;5603310;31;33645;-57
2022/08/19 04:35:48;;;;;;;11.75;9.57;;;;;;;26.21;50.89;99990.41;5600538;31;33632;-57
2022/08/19 04:38:54;;;;;;;10.13;9.02;;;;;;;26.25;50.70;99986.47;5587319;31;33563;-57
2022/08/19 04:45:17;;;;;;;11.55;10.13;;;;;;;26.30;51.29;99996.28;5583595;32;33628;-57
2022/08/19 04:48:26;;;;;;;11.95;9.73;;;;;;;26.30;50.71;99999.03;5564087;32;33627;-57
2022/08/19 04:51:31;;;;;;;12.82;10.10;;;;;;;26.32;50.84;99998.63;5563582;32;33837;-56
2022/08/19 04:54:33;;;;;;;12.50;9.77;;;;;;;26.29;51.02;99989.22;5563815;32;33501;-57
2022/08/19 04:57:40;;;;;;;18.67;10.48;;;;;;;26.35;51.27;99987.63;5563938;32;33657;-57
2022/08/19 05:00:43;;;;;;;14.85;9.50;;;;;;;26.30;51.29;99987.25;5563385;32;34373;-57
2022/08/19 05:03:45;;;;;;;10.55;9.52;;;;;;;26.43;50.70;99991.94;5563684;32;33568;-57
2022/08/19 05:06:49;;;;;;;16.50;9.93;;;;;;;26.37;50.96;99996.25;5563772;32;33700;-57
2022/08/19 05:09:51;;;;;;;12.02;9.48;;;;;;;26.38;50.61;99999.78;5563880;32;34244;-57
2022/08/19 05:13:00;;;;;;;12.98;9.10;;;;;;;26.46;50.20;100002.13;5552076;32;33661;-57
2022/08/19 05:16:02;;;;;;;10.57;9.25;;;;;;;26.47;50.99;99997.41;5550736;32;33614;-56
2022/08/19 05:22:32;;;;;;;10.82;8.73;;;;;;;26.51;50.81;100000.97;5538774;32;33431;-57
2022/08/19 05:25:39;;;;;;;12.07;9.50;;;;;;;26.60;50.90;100003.28;5550550;32;34428;-57
2022/08/19 05:28:42;;;;;;;13.93;9.52;;;;;;;26.66;49.75;99999.75;5550231;32;33567;-57
2022/08/19 05:31:45;;;;;;;10.20;8.07;;;;;;;26.70;50.00;99997.75;5550379;32;33728;-57
2022/08/19 05:34:48;;;;;;;12.85;9.20;;;;;;;26.81;49.80;99996.91;5533812;32;34213;-56
2022/08/19 05:37:50;;;;;;;11.93;9.07;;;;;;;26.95;49.66;99994.09;5538152;32;34254;-57
2022/08/19 05:40:59;;;;;;;10.60;9.25;;;;;;;26.97;49.52;99997.22;5569260;32;33951;-57
2022/08/19 05:44:06;;;;;;;11.23;9.32;;;;;;;26.96;49.63;100001.19;5569494;32;34294;-57
2022/08/19 05:47:08;;;;;;;11.32;8.52;;;;;;;27.02;48.99;100001.53;5569094;31;33642;-57
2022/08/19 05:50:10;;;;;;;12.45;9.00;;;;;;;27.06;49.18;99999.56;5569739;32;34369;-57
2022/08/19 05:53:16;;;;;;;12.15;9.18;;;;;;;27.11;49.85;99999.13;5569533;32;34266;-56
2022/08/19 05:56:19;;;;;;;13.40;8.80;;;;;;;27.16;48.58;100004.25;5553537;32;34296;-57
2022/08/19 05:59:21;;;;;;;13.10;9.93;;;;;;;27.23;49.04;100000.66;5526398;32;33687;-57
2022/08/19 06:02:27;;;;;;;15.07;9.00;;;;;;;27.29;48.74;100001.81;5536134;32;34275;-57
2022/08/19 06:05:30;;;;;;;11.57;9.18;;;;;;;27.27;47.62;100007.69;5528110;32;33619;-57
2022/08/19 06:08:49;;;;;;;10.88;8.63;;;;;;;27.26;48.50;100006.16;5541612;32;33903;-58
2022/08/19 06:11:55;;;;;;;10.25;8.95;;;;;;;27.29;48.10;99999.84;5508413;32;33357;-58
2022/08/19 06:14:57;;;;;;;11.32;8.27;;;;;;;27.34;47.88;99993.13;5538262;32;33530;-57
2022/08/19 06:18:03;;;;;;;17.25;9.23;;;;;;;27.38;49.01;99994.66;5541510;32;33692;-57
2022/08/19 06:21:05;;;;;;;13.13;8.38;;;;;;;27.51;48.22;100002.44;5533932;32;33558;-57
2022/08/19 06:24:10;;;;;;;13.73;9.00;;;;;;;27.58;48.15;99999.63;5533972;32;33452;-56
2022/08/19 06:27:12;;;;;;;12.77;8.50;;;;;;;27.58;47.84;99999.63;5549803;32;33671;-57
2022/08/19 06:30:15;;;;;;;13.55;8.73;;;;;;;27.69;46.93;99994.84;5549574;32;34272;-57
2022/08/19 06:33:17;;;;;;;16.48;8.55;;;;;;;27.66;47.39;99981.88;5550628;32;33643;-58
2022/08/19 06:36:29;;;;;;;13.25;8.82;;;;;;;27.79;47.38;99977.47;5549642;32;33345;-57
2022/08/19 06:39:35;;;;;;;14.15;8.02;;;;;;;27.90;46.65;99974.59;5549825;32;33648;-57
2022/08/19 06:42:40;;;;;;;23.75;9.38;;;;;;;27.91;46.28;99984.41;5549157;32;33578;-57
2022/08/19 06:45:56;;;;;;;16.58;8.23;;;;;;;28.05;47.01;99981.53;5549732;32;33785;-57
2022/08/19 06:49:00;;;;;;;15.93;8.63;;;;;;;28.09;46.13;99985.03;5549347;32;34373;-57
2022/08/19 06:52:03;;;;;;;10.93;7.97;;;;;;;28.15;46.02;99973.59;5549580;32;34305;-57
2022/08/19 06:55:06;;;;;;;13.52;7.35;;;;;;;28.17;46.13;99966.44;5549305;32;33825;-57
2022/08/19 06:58:09;;;;;;;12.07;8.15;;;;;;;28.20;45.96;99970.37;5549518;32;33623;-58
2022/08/19 07:01:11;;;;;;;11.90;8.20;;;;;;;28.25;45.60;99978.19;5549051;32;34300;-57
2022/08/19 07:04:16;;;;;;;12.77;7.80;;;;;;;28.41;45.21;99985.91;5549194;32;34120;-56
2022/08/19 07:07:21;;;;;;;14.75;7.75;;;;;;;28.41;45.46;99994.19;5549716;32;33611;-57
2022/08/19 07:10:25;;;;;;;11.35;7.90;;;;;;;28.43;45.40;100000.84;5548900;32;33610;-56
2022/08/19 07:13:27;;;;;;;16.08;8.20;;;;;;;28.49;45.04;100001.97;5548858;32;34315;-57
2022/08/19 07:16:29;;;;;;;11.52;8.15;;;;;;;28.61;44.19;100014.47;5549217;32;33666;-57
2022/08/19 07:19:33;;;;;;;23.38;8.05;;;;;;;28.61;44.20;100011.69;5549197;32;33193;-57
2022/08/19 07:22:35;;;;;;;14.75;7.70;;;;;;;28.69;43.94;100012.38;5542129;32;33594;-57
2022/08/19 07:25:38;;;;;;;19.45;7.82;;;;;;;28.76;43.57;100004.78;5549430;32;34353;-57
2022/08/19 07:28:44;;;;;;;23.63;8.00;;;;;;;28.81;43.56;100011.84;5549162;32;33674;-57
2022/08/19 07:31:56;;;;;;;15.13;7.40;;;;;;;28.90;43.43;100009.34;5532384;32;34390;-57
2022/08/19 07:35:00;;;;;;;12.20;7.68;;;;;;;29.00;42.84;100002.16;5525725;32;33632;-58
2022/08/19 07:38:03;;;;;;;12.55;7.87;;;;;;;29.02;43.47;100006.06;5533692;32;33462;-57
2022/08/19 07:41:06;;;;;;;26.45;8.27;;;;;;;29.06;43.20;100005.25;5548926;32;34243;-56
2022/08/19 07:44:09;;;;;;;15.13;7.75;;;;;;;29.11;43.75;100005.56;5548865;32;34294;-57
2022/08/19 07:47:12;;;;;;;13.70;7.65;;;;;;;29.11;44.61;99999.28;5549031;32;34254;-57
2022/08/19 07:50:35;;;;;;;15.27;7.47;;;;;;;29.22;43.41;99989.62;5548714;32;33559;-57
2022/08/19 07:53:37;;;;;;;8.90;6.72;;;;;;;29.22;43.11;99997.12;5548937;32;34278;-57
2022/08/19 07:56:41;;;;;;;30.02;7.90;;;;;;;29.27;43.07;99994.69;5548815;32;33576;-57
2022/08/19 07:59:43;;;;;;;12.15;7.55;;;;;;;29.41;42.51;99998.44;5548769;32;34280;-57
2022/08/19 08:02:45;;;;;;;19.00;7.45;;;;;;;29.48;42.32;100001.06;5547949;32;34402;-57
2022/08/19 08:09:15;;;;;;;37.47;9.13;;;;;;;29.58;41.12;100002.87;5548632;32;33343;-57
2022/08/19 08:12:24;;;;;;;16.98;7.70;;;;;;;29.62;41.86;100000.09;5548349;32;33720;-57
2022/08/19 08:15:37;;;;;;;12.63;8.13;;;;;;;29.69;41.81;99999.97;5548110;32;33963;-57
2022/08/19 08:18:44;;;;;;;20.27;8.40;;;;;;;29.68;41.75;100007.47;5548429;32;33682;-57
2022/08/19 08:21:56;;;;;;;14.98;7.40;;;;;;;29.70;41.50;99999.56;5548151;32;33333;-57
2022/08/19 08:25:02;;;;;;;11.70;7.20;;;;;;;29.74;41.59;100010.56;5548224;32;33587;-57
2022/08/19 08:28:08;;;;;;;18.02;7.32;;;;;;;29.83;39.83;100002.50;5548079;32;34450;-57
2022/08/19 08:31:19;;;;;;;75.55;10.93;;;;;;;29.90;39.27;99996.06;5548186;32;33711;-57
2022/08/19 08:34:22;;;;;;;10.93;6.82;;;;;;;29.95;40.15;100004.66;5547829;32;33762;-57
2022/08/19 08:37:24;;;;;;;13.15;6.57;;;;;;;30.05;39.30;99997.38;5547942;32;34536;-57
2022/08/19 08:40:29;;;;;;;9.40;6.50;;;;;;;30.13;38.46;100006.31;5548058;32;34287;-57
2022/08/19 08:43:36;;;;;;;9.10;6.62;;;;;;;30.19;38.63;100002.66;5547454;32;33920;-57
2022/08/19 08:46:47;;;;;;;9.27;6.97;;;;;;;30.28;38.43;99984.75;5548577;32;33705;-57
2022/08/19 08:50:00;;;;;;;13.18;6.65;;;;;;;30.50;37.96;99983.13;5549684;32;33430;-57
2022/08/19 08:53:05;;;;;;;10.10;6.62;;;;;;;30.47;38.36;99974.91;5550471;32;33281;-57
2022/08/19 08:56:12;;;;;;;24.98;7.35;;;;;;;30.47;38.82;99964.63;5550582;32;33344;-57
2022/08/19 08:59:28;;;;;;;12.35;6.43;;;;;;;30.39;37.34;99966.72;5550485;32;34160;-57
2022/08/19 09:02:30;;;;;;;18.52;6.87;;;;;;;30.45;37.99;99969.00;5550491;32;34311;-57
2022/08/19 09:05:52;;;;;;;16.58;7.20;;;;;;;30.59;37.80;99971.47;5550736;32;33701;-57
2022/08/19 09:09:06;;;;;;;14.82;7.40;;;;;;;30.56;38.15;99967.59;5550108;32;34431;-57
2022/08/19 09:12:36;;;;;;;15.50;7.25;;;;;;;30.60;38.45;99964.75;5550260;32;34324;-57
2022/08/19 09:15:44;;;;;;;17.45;7.45;;;;;;;30.64;38.09;99966.22;5550577;32;33703;-57
2022/08/19 09:18:53;;;;;;;12.10;7.45;;;;;;;30.71;37.81;99972.81;5550396;32;34864;-57
2022/08/19 09:21:56;;;;;;;13.48;6.97;;;;;;;30.88;37.91;99968.91;5560528;32;33749;-57
2022/08/19 09:24:59;;;;;;;12.77;6.97;;;;;;;30.89;38.12;99962.16;5566383;32;33719;-57
2022/08/19 09:28:05;;;;;;;12.50;6.85;;;;;;;30.88;37.96;99955.84;5569806;32;34345;-57
2022/08/19 09:31:26;;;;;;;15.85;7.72;;;;;;;30.91;37.96;99956.22;5567446;31;33770;-57
2022/08/19 09:34:29;;;;;;;12.85;7.20;;;;;;;30.98;37.48;99939.44;5567462;32;33666;-57
2022/08/19 09:37:38;;;;;;;10.95;6.82;;;;;;;31.07;37.57;99947.94;5555163;32;33711;-57
2022/08/19 09:40:41;;;;;;;8.85;6.45;;;;;;;31.08;36.69;99941.19;5562814;32;33749;-57
2022/08/19 09:43:46;;;;;;;13.05;7.00;;;;;;;31.13;36.65;99940.69;5568172;32;34359;-57
2022/08/19 09:46:50;;;;;;;14.10;7.15;;;;;;;31.20;37.12;99937.75;5558260;32;33607;-57
2022/08/19 09:49:52;;;;;;;13.68;6.72;;;;;;;31.16;36.31;99933.47;5566605;32;34318;-57
2022/08/19 09:52:56;;;;;;;13.73;6.87;;;;;;;31.29;36.37;99937.12;5564891;32;33693;-57
2022/08/19 09:55:59;;;;;;;9.05;6.53;;;;;;;31.31;35.90;99927.19;5565319;32;33813;-57
2022/08/19 09:59:05;;;;;;;11.90;6.75;;;;;;;31.35;36.67;99910.50;5556828;31;34349;-57
2022/08/19 10:02:07;;;;;;;12.48;7.10;;;;;;;31.53;36.12;99913.59;5559613;32;33611;-57
2022/08/19 10:08:36;;;;;;;10.88;6.30;;;;;;;31.63;35.87;99911.00;5565865;32;33746;-57
2022/08/19 10:11:46;;;;;;;10.27;6.50;;;;;;;31.67;35.21;99911.69;5566732;32;33654;-57
2022/08/19 10:14:56;;;;;;;9.90;6.62;;;;;;;31.66;35.22;99913.69;5559859;32;33307;-57
2022/08/19 10:17:59;;;;;;;8.68;6.68;;;;;;;31.67;35.86;99917.22;5565352;32;34284;-58
2022/08/19 10:21:11;;;;;;;11.35;6.43;;;;;;;31.68;35.17;99907.69;5558882;32;34308;-57
2022/08/19 10:24:13;;;;;;;8.80;6.65;;;;;;;31.73;35.62;99909.94;5568054;32;33786;-57
2022/08/19 10:27:19;;;;;;;11.88;6.68;;;;;;;31.73;34.92;99902.41;5557049;32;35153;-57
2022/08/19 10:30:21;;;;;;;8.98;6.37;;;;;;;31.82;35.01;99899.00;5565912;32;33770;-58
2022/08/19 10:33:27;;;;;;;15.75;6.40;;;;;;;31.88;34.83;99899.28;5565766;32;33743;-57
2022/08/19 10:36:50;;;;;;;11.38;6.47;;;;;;;31.93;34.95;99909.84;5566960;32;33296;-58
2022/08/19 10:39:58;;;;;;;9.88;6.45;;;;;;;31.92;34.38;99900.75;5565316;32;33771;-58
2022/08/19 10:43:00;;;;;;;10.60;6.47;;;;;;;32.00;34.44;99898.53;5567323;32;33209;-58
2022/08/19 10:46:03;;;;;;;9.88;6.32;;;;;;;32.08;33.78;99893.56;5564035;32;33798;-57
2022/08/19 10:49:11;;;;;;;10.75;6.62;;;;;;;32.18;33.84;99906.34;5566463;32;34393;-57
2022/08/19 10:58:57;;;;;;;9.52;6.18;;;;;;;32.16;33.97;99897.72;5568339;32;34776;-57
2022/08/19 11:02:01;;;;;;;10.15;6.60;;;;;;;32.28;33.26;99892.19;5567290;32;34350;-57
2022/08/19 11:05:03;;;;;;;10.23;6.87;;;;;;;32.39;33.57;99893.87;5566817;32;33751;-58
2022/08/19 11:08:15;;;;;;;9.68;6.68;;;;;;;32.41;33.30;99888.66;5558997;32;33318;-57
2022/08/19 11:11:25;;;;;;;10.30;7.47;;;;;;;32.48;33.47;99891.22;5550590;32;34314;-57
2022/08/19 11:14:30;;;;;;;10.63;7.33;;;;;;;32.52;32.67;99880.84;5560778;32;33671;-57
2022/08/19 11:17:35;;;;;;;8.80;7.12;;;;;;;32.42;32.71;99879.13;5567318;32;33787;-57
2022/08/19 11:20:38;;;;;;;12.13;7.00;;;;;;;32.58;32.61;99884.59;5565764;32;33684;-57
2022/08/19 11:23:40;;;;;;;8.82;6.97;;;;;;;32.62;32.53;99885.28;5562679;32;34267;-57
2022/08/19 11:26:44;;;;;;;11.73;7.55;;;;;;;32.56;33.76;99898.12;5558943;32;33758;-58
2022/08/19 11:29:46;;;;;;;12.52;6.60;;;;;;;32.60;32.11;99886.94;5563242;31;33706;-57
2022/08/19 11:32:49;;;;;;;12.05;7.43;;;;;;;32.62;32.28;99884.50;5566002;32;33340;-57
2022/08/19 11:35:51;;;;;;;7.78;6.72;;;;;;;32.66;31.82;99874.06;5565722;32;33286;-57
2022/08/19 11:38:54;;;;;;;9.93;6.70;;;;;;;32.77;31.88;99880.03;5567127;32;33775;-57
2022/08/19 11:42:01;;;;;;;12.57;5.97;;;;;;;32.83;31.92;99881.03;5565822;32;33575;-57
2022/08/19 11:45:04;;;;;;;8.38;5.65;;;;;;;32.90;31.60;99878.03;5561667;32;33408;-57
2022/08/19 11:48:06;;;;;;;12.43;6.68;;;;;;;32.95;31.62;99880.28;5567312;32;34346;-57
2022/08/19 11:51:12;;;;;;;9.82;6.47;;;;;;;32.93;30.94;99870.81;5567010;32;33315;-57
2022/08/19 11:54:16;;;;;;;13.85;7.68;;;;;;;32.94;32.22;99873.16;5561969;32;33931;-57
2022/08/19 11:57:19;;;;;;;10.02;7.18;;;;;;;33.08;31.32;99862.81;5567114;32;34207;-57
2022/08/19 12:00:21;;;;;;;12.77;7.55;;;;;;;33.04;30.82;99857.38;5568357;32;34501;-58
2022/08/19 12:03:24;;;;;;;11.73;7.95;;;;;;;33.15;30.79;99857.06;5567836;32;33844;-57
2022/08/19 12:06:31;;;;;;;14.45;9.93;;;;;;;33.15;31.09;99859.84;5567020;32;33718;-57
2022/08/19 12:09:34;;;;;;;21.58;10.13;;;;;;;33.22;30.79;99862.38;5559243;32;34029;-57
2022/08/19 12:12:40;;;;;;;15.35;10.20;;;;;;;33.10;30.53;99857.63;5554238;32;33685;-58
2022/08/19 12:15:42;;;;;;;14.82;10.20;;;;;;;33.13;31.16;99862.28;5568059;32;34414;-57
2022/08/19 12:18:48;;;;;;;14.82;9.55;;;;;;;33.11;30.42;99864.72;5565148;32;33924;-57
2022/08/19 12:21:52;;;;;;;14.13;9.85;;;;;;;33.35;30.65;99862.34;5566225;32;34367;-57
2022/08/19 12:24:55;;;;;;;18.52;9.73;;;;;;;33.32;30.49;99864.00;5562367;32;34653;-57
2022/08/19 12:27:57;;;;;;;15.02;9.45;;;;;;;33.17;31.02;99869.25;5568682;32;33609;-57
2022/08/19 12:31:00;;;;;;;11.75;9.65;;;;;;;33.24;30.33;99873.03;5568262;32;32881;-57
2022/08/19 12:34:02;;;;;;;19.95;10.55;;;;;;;33.43;30.34;99864.41;5569664;32;34406;-57
2022/08/19 12:37:06;;;;;;;15.77;10.20;;;;;;;33.28;30.53;99865.34;5567382;32;33735;-58
2022/08/19 12:40:09;;;;;;;14.48;11.27;;;;;;;33.35;30.68;99852.00;5567537;32;34365;-57
2022/08/19 12:43:11;;;;;;;17.42;12.68;;;;;;;33.40;30.91;99848.63;5568738;32;33802;-57
2022/08/19 12:46:14;;;;;;;15.85;13.02;;;;;;;33.37;30.39;99843.19;5569286;32;33713;-57
2022/08/19 12:49:18;;;;;;;19.15;13.93;;;;;;;33.34;30.82;99842.09;5569486;32;34251;-57
2022/08/19 12:52:41;;;;;;;17.12;13.52;;;;;;;33.29;30.48;99836.34;5569152;32;34333;-58
2022/08/19 12:55:45;;;;;;;20.95;13.90;;;;;;;33.28;30.64;99826.44;5570366;32;33729;-57
2022/08/19 12:58:49;;;;;;;17.95;14.60;;;;;;;33.31;30.41;99822.78;5568713;32;33718;-58
2022/08/19 13:01:54;;;;;;;20.05;14.75;;;;;;;33.29;29.73;99820.47;5559116;32;33827;-57
2022/08/19 13:04:56;;;;;;;21.87;14.80;;;;;;;33.33;30.18;99828.66;5568334;32;33643;-58
2022/08/19 13:07:59;;;;;;;17.27;13.60;;;;;;;33.39;30.05;99829.66;5560063;32;34296;-58
2022/08/19 13:11:11;;;;;;;15.80;12.77;;;;;;;33.46;30.47;99821.06;5558528;32;34409;-57
2022/08/19 13:14:13;;;;;;;20.67;11.10;;;;;;;33.49;30.41;99822.19;5568261;32;34149;-57
2022/08/19 13:17:16;;;;;;;12.82;7.50;;;;;;;33.56;29.63;99821.94;5567540;32;33804;-57
2022/08/19 13:20:20;;;;;;;17.87;7.25;;;;;;;33.63;29.74;99816.91;5565071;32;34269;-57
2022/08/19 13:23:22;;;;;;;11.10;5.97;;;;;;;33.68;29.43;99819.09;5564934;32;34757;-57
2022/08/19 13:26:24;;;;;;;11.75;5.30;;;;;;;33.72;29.41;99807.09;5568494;32;33724;-57
2022/08/19 13:36:08;;;;;;;12.63;5.32;;;;;;;33.68;29.74;99810.00;5569818;32;33690;-57
2022/08/19 13:39:12;;;;;;;18.02;5.55;;;;;;;33.60;29.51;99806.69;5568124;32;34732;-57
2022/08/19 13:42:14;;;;;;;12.00;5.50;;;;;;;33.50;29.76;99802.28;5570002;32;33617;-57
2022/08/19 13:45:20;;;;;;;17.50;5.65;;;;;;;33.45;30.18;99805.63;5568716;32;33824;-57
2022/08/19 13:48:23;;;;;;;17.40;5.72;;;;;;;33.54;30.16;99810.50;5569680;31;33634;-57
2022/08/19 13:51:25;;;;;;;11.20;5.57;;;;;;;33.48;30.41;99806.69;5568264;32;33772;-57
2022/08/19 13:54:27;;;;;;;36.20;6.93;;;;;;;33.53;31.39;99795.06;5569727;32;33910;-58
2022/08/19 13:57:30;;;;;;;26.50;6.85;;;;;;;33.68;32.31;99805.22;5569960;32;34379;-57
2022/08/19 14:00:38;;;;;;;31.12;5.82;;;;;;;33.69;33.60;99808.75;5569538;32;34409;-57
2022/08/19 14:03:40;;;;;;;46.03;7.32;;;;;;;33.41;34.37;99830.75;5569413;32;34090;-57
2022/08/19 14:06:42;;;;;;;35.95;6.32;;;;;;;33.07;35.26;99866.84;5569716;32;34325;-57
2022/08/19 14:09:45;;;;;;;17.25;5.50;;;;;;;32.77;35.83;99824.53;5569192;32;34459;-57
2022/08/19 14:12:55;;;;;;;26.42;5.68;;;;;;;32.54;36.89;99835.97;5567982;32;34478;-57
2022/08/19 14:15:57;;;;;;;24.98;5.00;;;;;;;32.32;36.71;99830.28;5568947;32;33703;-57
2022/08/19 14:19:00;;;;;;;27.42;5.68;;;;;;;32.16;36.64;99820.84;5568947;32;33722;-57
2022/08/19 14:22:05;;;;;;;24.45;5.70;;;;;;;32.13;36.79;99837.59;5569261;32;34324;-57
2022/08/19 14:25:09;;;;;;;19.33;5.00;;;;;;;32.02;36.59;99819.28;5568667;32;34454;-57
2022/08/19 14:28:12;;;;;;;24.10;5.12;;;;;;;32.04;36.70;99811.28;5569738;32;33745;-57
2022/08/19 14:31:18;;;;;;;18.40;5.55;;;;;;;32.01;36.80;99808.59;5568497;32;33674;-57
2022/08/19 14:34:21;;;;;;;18.25;4.65;;;;;;;31.96;36.78;99817.47;5555989;32;34495;-57
2022/08/19 14:37:24;;;;;;;13.98;4.95;;;;;;;31.89;37.19;99801.03;5554376;32;34177;-57
